Time,TemperatureF,DewpointF,PressureIn,WindDirection,WindDirectionDegrees,WindSpeedMPH,WindSpeedGustMPH,Humidity,HourlyPrecipIn,Conditions,Clouds,dailyrainin,SoftwareType,DateUTC
2014-02-12 00:02:00,26.6,3.2,30.17,WNW,286,2.3,2.3,36,0.00,CLR,,0.00,WeatherDisplay:10.37,2014-02-12 07:02:00,
2014-02-12 00:07:00,26.4,3.0,30.17,West,273,6.9,6.9,36,0.00,CLR,,0.00,WeatherDisplay:10.37,2014-02-12 07:07:00,
2014-02-12 00:12:00,26.3,2.9,30.17,West,273,0.0,0.0,36,0.00,CLR,,0.00,WeatherDisplay:10.37,2014-02-12 07:12:00,
2014-02-12 00:17:00,26.0,3.8,30.17,West,273,0.0,0.0,38,0.00,CLR,,0.00,WeatherDisplay:10.37,2014-02-12 07:17:00,
2014-02-12 00:22:00,24.8,2.2,30.17,South,182,3.5,3.5,37,0.00,CLR,,0.00,WeatherDisplay:10.37,2014-02-12 07:22:00,
2014-02-12 00:27:00,23.8,3.5,30.17,South,182,0.0,0.1,41,0.00,CLR,,0.00,WeatherDisplay:10.37,2014-02-12 07:27:00,
2014-02-12 00:32:00,23.0,4.3,30.17,South,182,0.0,0.0,44,0.00,CLR,,0.00,WeatherDisplay:10.37,2014-02-12 07:32:00,
2014-02-12 00:37:00,22.4,3.7,30.17,South,182,0.0,0.0,44,0.00,CLR,,0.00,WeatherDisplay:10.37,2014-02-12 07:37:00,
2014-02-12 00:42:00,21.8,3.7,30.17,South,182,0.0,0.0,45,0.00,CLR,,0.00,WeatherDisplay:10.37,2014-02-12 07:42:00,
2014-02-12 00:47:00,21.1,2.6,30.18,South,182,0.0,0.0,44,0.00,CLR,,0.00,WeatherDisplay:10.37,2014-02-12 07:47:00,
2014-02-12 00:52:00,20.6,3.5,30.18,South,182,1.0,0.0,47,0.00,CLR,,0.00,WeatherDisplay:10.37,2014-02-12 07:52:00,
2014-02-12 00:57:00,20.2,2.7,30.18,South,182,3.5,3.5,46,0.00,CLR,,0.00,WeatherDisplay:10.37,2014-02-12 07:57:00,
2014-02-12 01:02:00,19.5,3.4,30.18,South,182,2.3,2.3,49,0.00,CLR,,0.00,WeatherDisplay:10.37,2014-02-12 08:02:00,
2014-02-12 01:07:00,18.8,3.6,30.18,South,182,2.0,2.0,51,0.00,CLR,,0.00,WeatherDisplay:10.37,2014-02-12 08:07:00,
2014-02-12 01:12:00,17.8,3.5,30.18,South,182,2.3,2.3,53,0.00,CLR,,0.00,WeatherDisplay:10.37,2014-02-12 08:12:00,
2014-02-12 01:17:00,17.5,2.8,30.18,South,182,3.5,3.5,52,0.00,CLR,,0.00,WeatherDisplay:10.37,2014-02-12 08:17:00,
2014-02-12 01:22:00,17.5,2.4,30.19,South,182,3.5,3.5,51,0.00,CLR,,0.00,WeatherDisplay:10.37,2014-02-12 08:22:00,
2014-02-12 01:27:00,17.8,2.3,30.19,South,182,3.5,3.5,50,0.00,CLR,,0.00,WeatherDisplay:10.37,2014-02-12 08:27:00,
2014-02-12 01:32:00,17.5,2.8,30.19,South,182,4.0,4.0,52,0.00,CLR,,0.00,WeatherDisplay:10.37,2014-02-12 08:32:00,
2014-02-12 01:37:00,17.8,2.3,30.18,South,182,3.5,3.5,50,0.00,CLR,,0.00,WeatherDisplay:10.37,2014-02-12 08:37:00,
2014-02-12 01:42:00,18.9,2.4,30.18,South,187,3.5,3.5,48,0.00,CLR,,0.00,WeatherDisplay:10.37,2014-02-12 08:42:00,
2014-02-12 01:47:00,19.1,2.6,30.18,South,188,3.5,3.5,48,0.00,CLR,,0.00,WeatherDisplay:10.37,2014-02-12 08:47:00,
2014-02-12 01:52:00,18.8,2.8,30.19,South,188,3.5,3.5,49,0.00,CLR,,0.00,WeatherDisplay:10.37,2014-02-12 08:52:00,
2014-02-12 01:57:00,18.8,2.3,30.19,West,267,3.5,3.5,48,0.00,CLR,,0.00,WeatherDisplay:10.37,2014-02-12 08:57:00,
2014-02-12 02:02:00,18.3,2.3,30.18,West,267,3.5,3.5,49,0.00,CLR,,0.00,WeatherDisplay:10.37,2014-02-12 09:02:00,
2014-02-12 02:07:00,17.7,1.7,30.18,West,267,3.5,3.5,49,0.00,CLR,,0.00,WeatherDisplay:10.37,2014-02-12 09:07:00,
2014-02-12 02:12:00,17.3,1.8,30.18,West,267,3.5,3.5,50,0.00,CLR,,0.00,WeatherDisplay:10.37,2014-02-12 09:12:00,
2014-02-12 02:17:00,17.3,1.8,30.19,West,267,3.5,3.5,50,0.00,CLR,,0.00,WeatherDisplay:10.37,2014-02-12 09:17:00,
2014-02-12 02:22:00,17.3,1.8,30.19,West,267,3.5,3.5,50,0.00,CLR,,0.00,WeatherDisplay:10.37,2014-02-12 09:22:00,
2014-02-12 02:27:00,17.0,1.5,30.19,West,267,3.5,3.5,50,0.00,CLR,,0.00,WeatherDisplay:10.37,2014-02-12 09:27:00,
2014-02-12 02:32:00,17.0,1.5,30.19,West,267,3.5,3.5,50,0.00,CLR,,0.00,WeatherDisplay:10.37,2014-02-12 09:32:00,
2014-02-12 02:37:00,16.7,1.7,30.19,West,267,4.0,4.0,51,0.00,CLR,,0.00,WeatherDisplay:10.37,2014-02-12 09:37:00,
2014-02-12 02:42:00,16.9,1.4,30.19,West,267,3.5,3.5,50,0.00,CLR,,0.00,WeatherDisplay:10.37,2014-02-12 09:42:00,
2014-02-12 02:47:00,16.5,1.5,30.19,West,267,3.5,3.5,51,0.00,CLR,,0.00,WeatherDisplay:10.37,2014-02-12 09:47:00,
2014-02-12 02:52:00,15.7,1.2,30.19,West,267,3.5,3.5,52,0.00,CLR,,0.00,WeatherDisplay:10.37,2014-02-12 09:52:00,
2014-02-12 02:57:00,14.8,1.5,30.19,West,267,2.3,2.5,55,0.00,CLR,,0.00,WeatherDisplay:10.37,2014-02-12 09:57:00,
2014-02-12 03:03:00,14.0,1.9,30.19,West,267,3.5,3.5,58,0.00,CLR,,0.00,WeatherDisplay:10.37,2014-02-12 10:03:00,
2014-02-12 03:08:00,13.8,1.7,30.19,West,267,3.5,3.5,58,0.00,CLR,,0.00,WeatherDisplay:10.37,2014-02-12 10:08:00,
2014-02-12 03:13:00,13.6,1.9,30.19,West,267,3.5,3.5,59,0.00,CLR,,0.00,WeatherDisplay:10.37,2014-02-12 10:13:00,
2014-02-12 03:18:00,13.6,1.9,30.19,West,267,3.5,3.5,59,0.00,CLR,,0.00,WeatherDisplay:10.37,2014-02-12 10:18:00,
2014-02-12 03:23:00,14.1,1.6,30.19,West,267,3.5,3.5,57,0.00,CLR,,0.00,WeatherDisplay:10.37,2014-02-12 10:23:00,
2014-02-12 03:28:00,14.8,1.1,30.20,West,267,0.0,0.0,54,0.00,CLR,,0.00,WeatherDisplay:10.37,2014-02-12 10:28:00,
2014-02-12 03:33:00,14.8,1.5,30.19,West,267,3.5,3.5,55,0.00,CLR,,0.00,WeatherDisplay:10.37,2014-02-12 10:33:00,
2014-02-12 03:38:00,14.6,0.9,30.20,West,267,3.5,3.5,54,0.00,CLR,,0.00,WeatherDisplay:10.37,2014-02-12 10:38:00,
2014-02-12 03:43:00,14.1,0.9,30.20,West,267,1.0,1.0,55,0.00,CLR,,0.00,WeatherDisplay:10.37,2014-02-12 10:43:00,
2014-02-12 03:48:00,13.3,1.6,30.20,West,267,2.3,2.3,59,0.00,CLR,,0.00,WeatherDisplay:10.37,2014-02-12 10:48:00,
2014-02-12 03:53:00,13.3,1.6,30.20,West,267,0.0,0.0,59,0.00,CLR,,0.00,WeatherDisplay:10.37,2014-02-12 10:53:00,
2014-02-12 03:58:00,12.8,1.2,30.20,West,267,2.3,2.3,59,0.00,CLR,,0.00,WeatherDisplay:10.37,2014-02-12 10:58:00,
2014-02-12 04:03:00,12.8,1.2,30.20,West,267,3.5,3.5,59,0.00,CLR,,0.00,WeatherDisplay:10.37,2014-02-12 11:03:00,
2014-02-12 04:08:00,12.8,0.8,30.20,West,267,3.0,3.0,58,0.00,CLR,,0.00,WeatherDisplay:10.37,2014-02-12 11:08:00,
2014-02-12 04:13:00,13.5,0.7,30.20,West,267,3.5,3.5,56,0.00,CLR,,0.00,WeatherDisplay:10.37,2014-02-12 11:13:00,
2014-02-12 04:18:00,13.5,1.1,30.20,West,267,3.5,3.5,57,0.00,CLR,,0.00,WeatherDisplay:10.37,2014-02-12 11:18:00,
2014-02-12 04:23:00,14.0,1.2,30.20,West,267,3.5,3.5,56,0.00,CLR,,0.00,WeatherDisplay:10.37,2014-02-12 11:23:00,
2014-02-12 04:28:00,14.1,0.5,30.20,West,267,3.5,3.5,54,0.00,CLR,,0.00,WeatherDisplay:10.37,2014-02-12 11:28:00,
2014-02-12 04:33:00,14.4,0.4,30.20,West,267,3.5,3.5,53,0.00,CLR,,0.00,WeatherDisplay:10.37,2014-02-12 11:33:00,
2014-02-12 04:38:00,14.8,0.3,30.20,West,267,4.0,4.0,52,0.00,CLR,,0.00,WeatherDisplay:10.37,2014-02-12 11:38:00,
2014-02-12 04:43:00,14.8,0.3,30.20,West,267,3.5,3.5,52,0.00,CLR,,0.00,WeatherDisplay:10.37,2014-02-12 11:43:00,
2014-02-12 04:48:00,14.3,0.3,30.20,West,267,3.5,3.5,53,0.00,CLR,,0.00,WeatherDisplay:10.37,2014-02-12 11:48:00,
2014-02-12 04:53:00,13.8,0.6,30.20,West,267,3.5,3.5,55,0.00,CLR,,0.00,WeatherDisplay:10.37,2014-02-12 11:53:00,
2014-02-12 04:58:00,13.5,0.7,30.20,West,267,3.5,3.5,56,0.00,CLR,,0.00,WeatherDisplay:10.37,2014-02-12 11:58:00,
2014-02-12 05:03:00,13.3,0.9,30.21,West,267,2.3,2.3,57,0.00,CLR,,0.00,WeatherDisplay:10.37,2014-02-12 12:03:00,
2014-02-12 05:08:00,13.3,0.9,30.20,West,267,3.5,3.5,57,0.00,CLR,,0.00,WeatherDisplay:10.37,2014-02-12 12:08:00,
2014-02-12 05:13:00,14.0,0.4,30.21,West,267,3.5,3.5,54,0.00,CLR,,0.00,WeatherDisplay:10.37,2014-02-12 12:13:00,
2014-02-12 05:18:00,14.0,0.4,30.21,West,267,3.5,3.5,54,0.00,CLR,,0.00,WeatherDisplay:10.37,2014-02-12 12:18:00,
2014-02-12 05:23:00,13.8,0.2,30.22,West,267,3.5,3.5,54,0.00,CLR,,0.00,WeatherDisplay:10.37,2014-02-12 12:23:00,
2014-02-12 05:28:00,13.8,0.2,30.22,West,267,3.5,3.5,54,0.00,CLR,,0.00,WeatherDisplay:10.37,2014-02-12 12:28:00,
2014-02-12 05:33:00,14.1,0.1,30.22,West,267,3.5,3.5,53,0.00,CLR,,0.00,WeatherDisplay:10.37,2014-02-12 12:33:00,
2014-02-12 05:38:00,14.1,0.1,30.22,West,267,3.5,3.5,53,0.00,CLR,,0.00,WeatherDisplay:10.37,2014-02-12 12:38:00,
2014-02-12 05:43:00,13.5,0.3,30.22,West,267,3.5,3.5,55,0.00,CLR,,0.00,WeatherDisplay:10.37,2014-02-12 12:43:00,
2014-02-12 05:48:00,13.3,-0.3,30.22,West,267,3.5,3.5,54,0.00,CLR,,0.00,WeatherDisplay:10.37,2014-02-12 12:48:00,
2014-02-12 05:53:00,12.6,0.6,30.21,West,267,3.5,3.5,58,0.00,CLR,,0.00,WeatherDisplay:10.37,2014-02-12 12:53:00,
2014-02-12 05:58:00,12.4,0.0,30.21,West,267,3.5,3.5,57,0.00,CLR,,0.00,WeatherDisplay:10.37,2014-02-12 12:58:00,
2014-02-12 06:03:00,12.9,0.5,30.20,West,267,3.5,3.5,57,0.00,CLR,,0.00,WeatherDisplay:10.37,2014-02-12 13:03:00,
2014-02-12 06:08:00,13.1,0.3,30.20,West,267,3.5,3.5,56,0.00,CLR,,0.00,WeatherDisplay:10.37,2014-02-12 13:08:00,
2014-02-12 06:13:00,13.1,0.3,30.20,West,267,3.5,3.5,56,0.00,CLR,,0.00,WeatherDisplay:10.37,2014-02-12 13:13:00,
2014-02-12 06:18:00,13.5,0.3,30.21,West,267,3.5,3.5,55,0.00,CLR,,0.00,WeatherDisplay:10.37,2014-02-12 13:18:00,
2014-02-12 06:23:00,13.8,0.2,30.21,West,267,3.5,3.5,54,0.00,CLR,,0.00,WeatherDisplay:10.37,2014-02-12 13:23:00,
2014-02-12 06:28:00,13.6,0.4,30.21,West,267,3.5,3.5,55,0.00,CLR,,0.00,WeatherDisplay:10.37,2014-02-12 13:28:00,
2014-02-12 06:33:00,13.8,-0.2,30.22,West,267,4.0,4.0,53,0.00,CLR,,0.00,WeatherDisplay:10.37,2014-02-12 13:33:00,
2014-02-12 06:38:00,14.0,0.0,30.23,West,267,4.0,4.0,53,0.00,CLR,,0.00,WeatherDisplay:10.37,2014-02-12 13:38:00,
2014-02-12 06:43:00,14.4,0.0,30.23,West,267,3.5,3.5,52,0.00,CLR,,0.00,WeatherDisplay:10.37,2014-02-12 13:43:00,
2014-02-12 06:48:00,14.8,0.3,30.23,West,267,3.5,3.5,52,0.00,CLR,,0.00,WeatherDisplay:10.37,2014-02-12 13:48:00,
2014-02-12 06:53:00,14.9,0.0,30.23,West,267,3.5,3.5,51,0.00,CLR,,0.00,WeatherDisplay:10.37,2014-02-12 13:53:00,
2014-02-12 06:58:00,14.8,-0.1,30.23,West,267,3.5,3.5,51,0.00,CLR,,0.00,WeatherDisplay:10.37,2014-02-12 13:58:00,
2014-02-12 07:03:00,14.4,0.0,30.23,West,267,3.5,3.5,52,0.00,CLR,,0.00,WeatherDisplay:10.37,2014-02-12 14:03:00,
2014-02-12 07:08:00,14.8,0.3,30.23,West,267,3.5,3.5,52,0.00,CLR,,0.00,WeatherDisplay:10.37,2014-02-12 14:08:00,
2014-02-12 07:13:00,15.6,0.7,30.23,West,267,3.5,3.5,51,0.00,CLR,,0.00,WeatherDisplay:10.37,2014-02-12 14:13:00,
2014-02-12 07:18:00,15.9,0.5,30.23,West,267,3.5,3.5,50,0.00,CLR,,0.00,WeatherDisplay:10.37,2014-02-12 14:18:00,
2014-02-12 07:23:00,16.1,0.7,30.23,West,267,3.5,3.5,50,0.00,CLR,,0.00,WeatherDisplay:10.37,2014-02-12 14:23:00,
2014-02-12 07:28:00,15.6,0.7,30.22,West,267,3.5,3.5,51,0.00,CLR,,0.00,WeatherDisplay:10.37,2014-02-12 14:28:00,
2014-02-12 07:33:00,14.4,0.8,30.21,West,267,3.5,3.5,54,0.00,CLR,,0.00,WeatherDisplay:10.37,2014-02-12 14:33:00,
2014-02-12 07:38:00,14.4,1.2,30.21,West,267,2.3,2.3,55,0.00,CLR,,0.00,WeatherDisplay:10.37,2014-02-12 14:38:00,
2014-02-12 07:43:00,14.8,1.9,30.20,West,267,0.0,0.0,56,0.00,CLR,,0.00,WeatherDisplay:10.37,2014-02-12 14:43:00,
2014-02-12 07:48:00,15.7,2.0,30.19,West,267,0.0,0.0,54,0.00,CLR,,0.00,WeatherDisplay:10.37,2014-02-12 14:48:00,
2014-02-12 07:53:00,16.5,2.7,30.21,West,267,2.0,2.0,54,0.00,CLR,,0.00,WeatherDisplay:10.37,2014-02-12 14:53:00,
2014-02-12 07:58:00,17.5,2.4,30.22,West,267,2.3,2.3,51,0.00,CLR,,0.00,WeatherDisplay:10.37,2014-02-12 14:58:00,
2014-02-12 08:04:00,18.3,2.7,30.22,West,267,0.0,0.0,50,0.00,CLR,,0.00,WeatherDisplay:10.37,2014-02-12 15:04:00,
2014-02-12 08:09:00,19.2,2.7,30.21,West,267,0.0,0.0,48,0.00,CLR,,0.00,WeatherDisplay:10.37,2014-02-12 15:09:00,
2014-02-12 08:14:00,20.8,4.2,30.22,West,267,0.0,0.0,48,0.00,CLR,,0.00,WeatherDisplay:10.37,2014-02-12 15:14:00,
2014-02-12 08:19:00,22.7,3.5,30.21,West,267,0.0,0.0,43,0.00,CLR,,0.00,WeatherDisplay:10.37,2014-02-12 15:19:00,
2014-02-12 08:24:00,25.0,5.1,30.22,West,267,0.0,0.0,42,0.00,CLR,,0.00,WeatherDisplay:10.37,2014-02-12 15:24:00,
2014-02-12 08:29:00,27.3,3.8,30.21,West,267,0.0,0.0,36,0.00,CLR,,0.00,WeatherDisplay:10.37,2014-02-12 15:29:00,
2014-02-12 08:34:00,29.0,3.4,30.20,West,267,0.0,0.0,33,0.00,CLR,,0.00,WeatherDisplay:10.37,2014-02-12 15:34:00,
2014-02-12 08:39:00,30.1,5.1,30.20,West,267,0.0,0.0,34,0.00,CLR,,0.00,WeatherDisplay:10.37,2014-02-12 15:39:00,
2014-02-12 08:44:00,29.5,3.9,30.20,ENE,76,1.2,1.2,33,0.00,CLR,,0.00,WeatherDisplay:10.37,2014-02-12 15:44:00,
2014-02-12 08:49:00,29.7,4.7,30.20,ENE,76,2.3,2.3,34,0.00,CLR,,0.00,WeatherDisplay:10.37,2014-02-12 15:49:00,
2014-02-12 08:54:00,29.3,5.0,30.20,ENE,76,1.2,0.0,35,0.00,CLR,,0.00,WeatherDisplay:10.37,2014-02-12 15:54:00,
2014-02-12 08:59:00,28.7,5.1,30.21,ENE,76,3.5,3.5,36,0.00,CLR,,0.00,WeatherDisplay:10.37,2014-02-12 15:59:00,
2014-02-12 09:04:00,27.8,4.9,30.21,East,80,1.0,0.0,37,0.00,CLR,,0.00,WeatherDisplay:10.37,2014-02-12 16:04:00,
2014-02-12 09:07:00,27.5,5.7,30.20,SE,130,4.6,4.6,39,0.00,CLR,,0.00,WeatherDisplay:10.37,2014-02-12 16:07:00,
2014-02-12 09:12:00,26.7,6.6,30.19,East,80,3.5,3.5,42,0.00,CLR,,0.00,WeatherDisplay:10.37,2014-02-12 16:12:00,
2014-02-12 09:17:00,26.4,6.4,30.18,East,94,3.5,3.5,42,0.00,CLR,,0.00,WeatherDisplay:10.37,2014-02-12 16:17:00,
2014-02-12 09:22:00,26.6,5.5,30.18,East,97,3.5,3.5,40,0.00,CLR,,0.00,WeatherDisplay:10.37,2014-02-12 16:22:00,
2014-02-12 09:27:00,27.2,6.6,30.18,East,89,4.6,4.6,41,0.00,CLR,,0.00,WeatherDisplay:10.37,2014-02-12 16:27:00,
2014-02-12 09:32:00,27.8,5.4,30.17,NE,54,2.0,2.0,38,0.00,CLR,,0.00,WeatherDisplay:10.37,2014-02-12 16:32:00,
2014-02-12 09:37:00,27.9,6.7,30.17,East,91,3.5,3.5,40,0.00,CLR,,0.00,WeatherDisplay:10.37,2014-02-12 16:37:00,
2014-02-12 09:42:00,28.5,7.2,30.16,East,81,5.8,5.8,40,0.00,CLR,,0.00,WeatherDisplay:10.37,2014-02-12 16:42:00,
2014-02-12 09:47:00,29.4,5.1,30.16,NE,52,6.9,6.9,35,0.00,CLR,,0.00,WeatherDisplay:10.37,2014-02-12 16:47:00,
2014-02-12 09:52:00,29.3,7.9,30.17,ESE,108,2.3,0.0,40,0.00,CLR,,0.00,WeatherDisplay:10.37,2014-02-12 16:52:00,
2014-02-12 09:57:00,29.7,7.7,30.16,NW,319,3.5,3.5,39,0.00,CLR,,0.00,WeatherDisplay:10.37,2014-02-12 16:57:00,
2014-02-12 10:02:00,30.9,1.6,30.15,NNW,347,5.0,5.0,28,0.00,CLR,,0.00,WeatherDisplay:10.37,2014-02-12 17:02:00,
2014-02-12 10:07:00,32.8,4.0,30.15,ENE,57,5.8,5.8,29,0.00,CLR,,0.00,WeatherDisplay:10.37,2014-02-12 17:07:00,
2014-02-12 10:12:00,32.2,8.2,30.14,ENE,71,6.9,6.9,36,0.00,CLR,,0.00,WeatherDisplay:10.37,2014-02-12 17:12:00,
2014-02-12 10:17:00,31.9,9.1,30.14,North,360,4.6,4.6,38,0.00,CLR,,0.00,WeatherDisplay:10.37,2014-02-12 17:17:00,
2014-02-12 10:22:00,32.4,5.1,30.14,North,350,4.6,4.6,31,0.00,CLR,,0.00,WeatherDisplay:10.37,2014-02-12 17:22:00,
2014-02-12 10:27:00,32.9,10.0,30.13,ENE,73,12.0,12.0,38,0.00,CLR,,0.00,WeatherDisplay:10.37,2014-02-12 17:27:00,
2014-02-12 10:32:00,32.9,9.4,30.13,North,351,5.8,5.8,37,0.00,CLR,,0.00,WeatherDisplay:10.37,2014-02-12 17:32:00,
2014-02-12 10:37:00,32.7,8.6,30.14,NE,54,5.0,5.0,36,0.00,CLR,,0.00,WeatherDisplay:10.37,2014-02-12 17:37:00,
2014-02-12 10:42:00,32.8,6.8,30.14,NE,49,11.5,11.5,33,0.00,CLR,,0.00,WeatherDisplay:10.37,2014-02-12 17:42:00,
2014-02-12 10:47:00,34.1,1.0,30.13,NE,55,3.0,3.0,24,0.00,CLR,,0.00,WeatherDisplay:10.37,2014-02-12 17:47:00,
2014-02-12 10:52:00,34.3,6.7,30.13,NE,55,8.1,8.1,31,0.00,CLR,,0.00,WeatherDisplay:10.37,2014-02-12 17:52:00,
2014-02-12 10:57:00,35.5,-10.6,30.13,NNE,20,5.8,5.8,13,0.00,CLR,,0.00,WeatherDisplay:10.37,2014-02-12 17:57:00,
2014-02-12 11:02:00,36.6,6.5,30.12,NNE,25,6.0,6.0,28,0.00,CLR,,0.00,WeatherDisplay:10.37,2014-02-12 18:02:00,
2014-02-12 11:07:00,36.8,-1.7,30.11,NE,51,8.1,8.1,19,0.00,CLR,,0.00,WeatherDisplay:10.37,2014-02-12 18:07:00,
2014-02-12 11:12:00,37.6,-3.4,30.10,SE,136,6.0,6.0,17,0.00,CLR,,0.00,WeatherDisplay:10.37,2014-02-12 18:12:00,
2014-02-12 11:17:00,38.2,-2.9,30.10,West,275,8.1,8.1,17,0.00,CLR,,0.00,WeatherDisplay:10.37,2014-02-12 18:17:00,
2014-02-12 11:22:00,38.2,-6.9,30.10,NNE,30,11.5,11.5,14,0.00,CLR,,0.00,WeatherDisplay:10.37,2014-02-12 18:22:00,
2014-02-12 11:27:00,38.2,-6.9,30.10,West,266,9.2,9.2,14,0.00,CLR,,0.00,WeatherDisplay:10.37,2014-02-12 18:27:00,
2014-02-12 11:32:00,37.9,-5.7,30.08,East,84,11.5,11.5,15,0.00,CLR,,0.00,WeatherDisplay:10.37,2014-02-12 18:32:00,
2014-02-12 11:37:00,38.2,-1.7,30.09,SE,140,3.5,3.5,18,0.00,CLR,,0.00,WeatherDisplay:10.37,2014-02-12 18:37:00,
2014-02-12 11:43:00,38.0,-7.1,30.08,SE,139,6.9,6.9,14,0.00,CLR,,0.00,WeatherDisplay:10.37,2014-02-12 18:43:00,
2014-02-12 11:48:00,37.6,-1.0,30.07,NNW,346,10.4,10.4,19,0.00,CLR,,0.00,WeatherDisplay:10.37,2014-02-12 18:48:00,
2014-02-12 11:53:00,37.5,0.0,30.06,NNE,12,15.0,15.0,20,0.00,CLR,,0.00,WeatherDisplay:10.37,2014-02-12 18:53:00,
2014-02-12 11:58:00,37.8,0.2,30.06,NNW,346,6.9,6.9,20,0.00,CLR,,0.00,WeatherDisplay:10.37,2014-02-12 18:58:00,
2014-02-12 12:03:00,37.9,-1.9,30.06,North,350,6.9,6.9,18,0.00,CLR,,0.00,WeatherDisplay:10.37,2014-02-12 19:03:00,
2014-02-12 12:08:00,37.6,-1.0,30.05,WNW,295,10.4,10.4,19,0.00,CLR,,0.00,WeatherDisplay:10.37,2014-02-12 19:08:00,
2014-02-12 12:13:00,37.8,1.3,30.06,SW,225,4.6,4.6,21,0.00,CLR,,0.00,WeatherDisplay:10.37,2014-02-12 19:13:00,
2014-02-12 12:18:00,37.6,1.1,30.05,NE,38,11.5,11.5,21,0.00,CLR,,0.00,WeatherDisplay:10.37,2014-02-12 19:18:00,
2014-02-12 12:23:00,38.2,3.6,30.05,NW,309,6.9,6.9,23,0.00,CLR,,0.00,WeatherDisplay:10.37,2014-02-12 19:23:00,
2014-02-12 12:28:00,38.5,4.8,30.05,NNW,332,9.2,9.2,24,0.00,CLR,,0.00,WeatherDisplay:10.37,2014-02-12 19:28:00,
2014-02-12 12:33:00,38.6,3.9,30.05,WSW,240,12.7,12.7,23,0.00,CLR,,0.00,WeatherDisplay:10.37,2014-02-12 19:33:00,
2014-02-12 12:38:00,38.8,6.8,30.04,NW,317,3.0,3.0,26,0.00,CLR,,0.00,WeatherDisplay:10.37,2014-02-12 19:38:00,
2014-02-12 12:43:00,39.1,6.2,30.04,West,273,12.7,12.7,25,0.00,CLR,,0.00,WeatherDisplay:10.37,2014-02-12 19:43:00,
2014-02-12 12:48:00,38.9,5.1,30.03,WSW,256,6.9,6.9,24,0.00,CLR,,0.00,WeatherDisplay:10.37,2014-02-12 19:48:00,
2014-02-12 12:53:00,38.9,6.0,30.03,WSW,250,3.5,3.5,25,0.00,CLR,,0.00,WeatherDisplay:10.37,2014-02-12 19:53:00,
2014-02-12 12:58:00,38.9,6.9,30.03,WSW,247,11.5,11.5,26,0.00,CLR,,0.00,WeatherDisplay:10.37,2014-02-12 19:58:00,
2014-02-12 13:03:00,38.5,7.4,30.02,SSE,167,9.2,9.2,27,0.00,CLR,,0.00,WeatherDisplay:10.37,2014-02-12 20:03:00,
2014-02-12 13:08:00,38.2,7.1,30.02,West,263,3.0,3.0,27,0.00,CLR,,0.00,WeatherDisplay:10.37,2014-02-12 20:08:00,
2014-02-12 13:13:00,38.5,7.4,30.01,WSW,252,12.7,12.7,27,0.00,CLR,,0.00,WeatherDisplay:10.37,2014-02-12 20:13:00,
2014-02-12 13:18:00,38.3,8.8,30.00,WSW,257,9.2,9.2,29,0.00,CLR,,0.00,WeatherDisplay:10.37,2014-02-12 20:18:00,
2014-02-12 13:23:00,38.5,8.9,29.99,SW,225,4.6,4.6,29,0.00,CLR,,0.00,WeatherDisplay:10.37,2014-02-12 20:23:00,
2014-02-12 13:28:00,38.9,7.7,29.99,SW,223,3.0,3.0,27,0.00,CLR,,0.00,WeatherDisplay:10.37,2014-02-12 20:28:00,
2014-02-12 13:33:00,39.1,11.7,30.00,WSW,242,2.3,0.0,32,0.00,CLR,,0.00,WeatherDisplay:10.37,2014-02-12 20:33:00,
2014-02-12 13:38:00,39.1,11.0,30.00,NNE,17,9.2,9.2,31,0.00,CLR,,0.00,WeatherDisplay:10.37,2014-02-12 20:38:00,
2014-02-12 13:43:00,38.6,7.4,30.00,NW,325,5.8,5.8,27,0.00,CLR,,0.00,WeatherDisplay:10.37,2014-02-12 20:43:00,
2014-02-12 13:48:00,38.5,9.7,30.00,WSW,257,12.0,12.0,30,0.00,CLR,,0.00,WeatherDisplay:10.37,2014-02-12 20:48:00,
2014-02-12 13:53:00,38.5,9.7,29.99,WSW,257,15.0,15.0,30,0.00,CLR,,0.00,WeatherDisplay:10.37,2014-02-12 20:53:00,
2014-02-12 13:58:00,38.2,8.7,30.00,WSW,237,5.8,5.8,29,0.00,CLR,,0.00,WeatherDisplay:10.37,2014-02-12 20:58:00,
2014-02-12 14:03:00,37.8,7.6,29.99,ENE,72,12.7,12.7,28,0.00,CLR,,0.00,WeatherDisplay:10.37,2014-02-12 21:03:00,
2014-02-12 14:08:00,38.2,8.7,29.99,ENE,74,11.0,11.0,29,0.00,CLR,,0.00,WeatherDisplay:10.37,2014-02-12 21:08:00,
2014-02-12 14:13:00,38.5,10.4,29.99,East,93,15.0,15.0,31,0.00,CLR,,0.00,WeatherDisplay:10.37,2014-02-12 21:13:00,
2014-02-12 14:18:00,39.2,9.6,29.99,WSW,246,11.5,11.5,29,0.00,CLR,,0.00,WeatherDisplay:10.37,2014-02-12 21:18:00,
2014-02-12 14:23:00,39.3,9.6,29.99,WNW,290,5.8,5.8,29,0.00,CLR,,0.00,WeatherDisplay:10.37,2014-02-12 21:23:00,
2014-02-12 14:28:00,39.3,9.6,29.98,East,84,16.1,16.1,29,0.00,CLR,,0.00,WeatherDisplay:10.37,2014-02-12 21:28:00,
2014-02-12 14:33:00,39.3,11.1,29.98,NNE,32,18.4,18.4,31,0.00,CLR,,0.00,WeatherDisplay:10.37,2014-02-12 21:33:00,
2014-02-12 14:38:00,39.2,10.3,29.97,NE,52,3.5,3.5,30,0.00,CLR,,0.00,WeatherDisplay:10.37,2014-02-12 21:38:00,
2014-02-12 14:43:00,39.3,10.4,29.98,WNW,301,8.1,8.1,30,0.00,CLR,,0.00,WeatherDisplay:10.37,2014-02-12 21:43:00,
2014-02-12 14:48:00,39.3,10.4,29.96,East,80,13.8,13.8,30,0.00,CLR,,0.00,WeatherDisplay:10.37,2014-02-12 21:48:00,
2014-02-12 14:53:00,39.2,11.8,29.97,NNE,32,11.5,11.5,32,0.00,CLR,,0.00,WeatherDisplay:10.37,2014-02-12 21:53:00,
2014-02-12 14:58:00,39.6,11.4,29.97,WSW,248,17.3,17.3,31,0.00,CLR,,0.00,WeatherDisplay:10.37,2014-02-12 21:58:00,
2014-02-12 15:03:00,39.9,11.7,29.97,NNE,19,9.2,9.2,31,0.00,CLR,,0.00,WeatherDisplay:10.37,2014-02-12 22:03:00,
2014-02-12 15:08:00,39.6,12.1,29.96,SE,132,12.0,12.0,32,0.00,CLR,,0.00,WeatherDisplay:10.37,2014-02-12 22:08:00,
2014-02-12 15:13:00,39.6,12.8,29.96,North,351,3.5,3.5,33,0.00,CLR,,0.00,WeatherDisplay:10.37,2014-02-12 22:13:00,
2014-02-12 15:18:00,39.8,13.0,29.94,NNE,31,9.2,9.2,33,0.00,CLR,,0.00,WeatherDisplay:10.37,2014-02-12 22:18:00,
2014-02-12 15:23:00,39.6,13.5,29.94,West,281,5.0,5.0,34,0.00,CLR,,0.00,WeatherDisplay:10.37,2014-02-12 22:23:00,
2014-02-12 15:28:00,39.8,13.0,29.93,ESE,123,11.5,11.5,33,0.00,CLR,,0.00,WeatherDisplay:10.37,2014-02-12 22:28:00,
2014-02-12 15:33:00,39.8,15.0,29.93,SW,217,9.2,9.2,36,0.00,CLR,,0.00,WeatherDisplay:10.37,2014-02-12 22:33:00,
2014-02-12 15:38:00,39.8,14.3,29.93,NE,53,3.5,3.5,35,0.00,CLR,,0.00,WeatherDisplay:10.37,2014-02-12 22:38:00,
2014-02-12 15:43:00,39.8,14.3,29.94,WSW,246,10.4,10.4,35,0.00,CLR,,0.00,WeatherDisplay:10.37,2014-02-12 22:43:00,
2014-02-12 15:48:00,39.6,13.5,29.93,NE,41,3.5,3.5,34,0.00,CLR,,0.00,WeatherDisplay:10.37,2014-02-12 22:48:00,
2014-02-12 15:53:00,39.5,14.1,29.93,WNW,289,18.4,18.4,35,0.00,CLR,,0.00,WeatherDisplay:10.37,2014-02-12 22:53:00,
2014-02-12 15:58:00,39.5,13.4,29.93,West,267,10.4,10.4,34,0.00,CLR,,0.00,WeatherDisplay:10.37,2014-02-12 22:58:00,
2014-02-12 16:03:00,39.5,14.1,29.93,NE,42,12.7,12.7,35,0.00,CLR,,0.00,WeatherDisplay:10.37,2014-02-12 23:03:00,
2014-02-12 16:08:00,39.3,15.2,29.93,NW,318,10.4,10.4,37,0.00,CLR,,0.00,WeatherDisplay:10.37,2014-02-12 23:08:00,
2014-02-12 16:13:00,39.5,14.1,29.94,NW,316,5.8,5.8,35,0.00,CLR,,0.00,WeatherDisplay:10.37,2014-02-12 23:13:00,
2014-02-12 16:18:00,39.5,14.7,29.94,NNW,347,10.4,10.4,36,0.00,CLR,,0.00,WeatherDisplay:10.37,2014-02-12 23:18:00,
2014-02-12 16:23:00,39.6,14.2,29.95,NNW,334,9.2,9.2,35,0.00,CLR,,0.00,WeatherDisplay:10.37,2014-02-12 23:23:00,
2014-02-12 16:28:00,39.5,14.1,29.96,WNW,294,5.8,5.8,35,0.00,CLR,,0.00,WeatherDisplay:10.37,2014-02-12 23:28:00,
2014-02-12 16:33:00,39.5,14.1,29.97,NW,313,5.8,5.8,35,0.00,CLR,,0.00,WeatherDisplay:10.37,2014-02-12 23:33:00,
2014-02-12 16:38:00,39.5,14.7,29.97,SW,236,6.9,6.9,36,0.00,CLR,,0.00,WeatherDisplay:10.37,2014-02-12 23:38:00,
2014-02-12 16:43:00,39.2,14.4,29.97,NW,313,5.8,5.8,36,0.00,CLR,,0.00,WeatherDisplay:10.37,2014-02-12 23:43:00,
2014-02-12 16:48:00,38.9,14.2,29.97,West,277,15.0,15.0,36,0.00,CLR,,0.00,WeatherDisplay:10.37,2014-02-12 23:48:00,
2014-02-12 16:53:00,38.5,14.4,29.97,WSW,248,5.8,5.8,37,0.00,CLR,,0.00,WeatherDisplay:10.37,2014-02-12 23:53:00,
2014-02-12 16:58:00,38.5,14.4,29.97,West,273,11.5,11.5,37,0.00,CLR,,0.00,WeatherDisplay:10.37,2014-02-12 23:58:00,
2014-02-12 17:03:00,38.2,14.2,29.96,WSW,246,11.5,11.5,37,0.00,CLR,,0.00,WeatherDisplay:10.37,2014-02-13 00:03:00,
2014-02-12 17:08:00,37.8,13.8,29.96,West,274,10.4,10.4,37,0.00,CLR,,0.00,WeatherDisplay:10.37,2014-02-13 00:08:00,
2014-02-12 17:13:00,37.3,14.6,29.96,WNW,284,7.0,7.0,39,0.00,CLR,,0.00,WeatherDisplay:10.37,2014-02-13 00:13:00,
2014-02-12 17:18:00,37.2,14.5,29.96,WSW,252,13.8,13.8,39,0.00,CLR,,0.00,WeatherDisplay:10.37,2014-02-13 00:18:00,
2014-02-12 17:23:00,37.3,14.6,29.97,West,273,16.1,16.1,39,0.00,CLR,,0.00,WeatherDisplay:10.37,2014-02-13 00:23:00,
2014-02-12 17:28:00,37.6,14.8,29.97,WNW,288,4.6,4.6,39,0.00,CLR,,0.00,WeatherDisplay:10.37,2014-02-13 00:28:00,
2014-02-12 17:33:00,37.8,14.4,29.97,North,9,11.5,11.5,38,0.00,CLR,,0.00,WeatherDisplay:10.37,2014-02-13 00:33:00,
2014-02-12 17:38:00,37.5,14.8,29.96,West,277,13.8,13.8,39,0.00,CLR,,0.00,WeatherDisplay:10.37,2014-02-13 00:38:00,
2014-02-12 17:43:00,37.3,15.2,29.96,NNW,329,6.9,6.9,40,0.00,CLR,,0.00,WeatherDisplay:10.37,2014-02-13 00:43:00,
2014-02-12 17:48:00,37.5,15.9,29.96,WNW,291,13.8,13.8,41,0.00,CLR,,0.00,WeatherDisplay:10.37,2014-02-13 00:48:00,
2014-02-12 17:53:00,37.8,15.6,29.96,West,269,10.4,10.4,40,0.00,CLR,,0.00,WeatherDisplay:10.37,2014-02-13 00:53:00,
2014-02-12 17:58:00,37.8,15.6,29.96,West,263,7.0,7.0,40,0.00,CLR,,0.00,WeatherDisplay:10.37,2014-02-13 00:58:00,
2014-02-12 18:03:00,38.0,15.8,29.96,WSW,252,11.0,11.0,40,0.00,CLR,,0.00,WeatherDisplay:10.37,2014-02-13 01:03:00,
2014-02-12 18:08:00,38.0,15.2,29.96,West,259,11.5,11.5,39,0.00,CLR,,0.00,WeatherDisplay:10.37,2014-02-13 01:08:00,
2014-02-12 18:13:00,37.9,15.7,29.96,WSW,243,15.0,15.0,40,0.00,CLR,,0.00,WeatherDisplay:10.37,2014-02-13 01:13:00,
2014-02-12 18:18:00,37.8,15.6,29.95,West,275,11.5,11.5,40,0.00,CLR,,0.00,WeatherDisplay:10.37,2014-02-13 01:18:00,
2014-02-12 18:23:00,37.0,15.5,29.95,WSW,249,19.0,19.0,41,0.00,CLR,,0.00,WeatherDisplay:10.37,2014-02-13 01:23:00,
2014-02-12 18:28:00,36.8,15.3,29.95,West,280,16.1,16.1,41,0.00,CLR,,0.00,WeatherDisplay:10.37,2014-02-13 01:28:00,
2014-02-12 18:33:00,36.6,15.6,29.95,WNW,288,19.6,19.6,42,0.00,CLR,,0.00,WeatherDisplay:10.37,2014-02-13 01:33:00,
2014-02-12 18:38:00,36.3,15.4,29.96,WNW,286,10.4,10.4,42,0.00,CLR,,0.00,WeatherDisplay:10.37,2014-02-13 01:38:00,
2014-02-12 18:43:00,36.0,16.2,29.96,West,275,9.2,9.2,44,0.00,CLR,,0.00,WeatherDisplay:10.37,2014-02-13 01:43:00,
2014-02-12 18:48:00,36.2,16.4,29.96,SW,223,19.6,19.6,44,0.00,CLR,,0.00,WeatherDisplay:10.37,2014-02-13 01:48:00,
2014-02-12 18:53:00,36.5,16.1,29.97,WSW,250,16.1,16.1,43,0.00,CLR,,0.00,WeatherDisplay:10.37,2014-02-13 01:53:00,
2014-02-12 18:58:00,36.5,16.1,29.96,NNW,333,12.7,12.7,43,0.00,CLR,,0.00,WeatherDisplay:10.37,2014-02-13 01:58:00,
2014-02-12 19:03:00,36.5,16.1,29.95,West,273,11.0,11.0,43,0.00,CLR,,0.00,WeatherDisplay:10.37,2014-02-13 02:03:00,
2014-02-12 19:08:00,36.5,16.6,29.96,WSW,253,9.2,9.2,44,0.00,CLR,,0.00,WeatherDisplay:10.37,2014-02-13 02:08:00,
2014-02-12 19:13:00,36.5,16.6,29.95,WNW,286,9.2,9.2,44,0.00,CLR,,0.00,WeatherDisplay:10.37,2014-02-13 02:13:00,
2014-02-12 19:18:00,36.5,16.1,29.96,NE,37,6.9,6.9,43,0.00,CLR,,0.00,WeatherDisplay:10.37,2014-02-13 02:18:00,
2014-02-12 19:23:00,36.0,16.2,29.97,SW,218,4.6,4.6,44,0.00,CLR,,0.00,WeatherDisplay:10.37,2014-02-13 02:23:00,
2014-02-12 19:28:00,36.2,16.9,29.97,NNW,342,6.9,6.9,45,0.00,CLR,,0.00,WeatherDisplay:10.37,2014-02-13 02:28:00,
2014-02-12 19:33:00,36.6,17.2,29.97,NE,44,9.2,9.2,45,0.00,CLR,,0.00,WeatherDisplay:10.37,2014-02-13 02:33:00,
2014-02-12 19:38:00,37.0,17.1,29.97,ENE,78,6.9,6.9,44,0.00,CLR,,0.00,WeatherDisplay:10.37,2014-02-13 02:38:00,
2014-02-12 19:43:00,37.0,17.6,29.95,NE,42,9.2,9.2,45,0.00,CLR,,0.00,WeatherDisplay:10.37,2014-02-13 02:43:00,
2014-02-12 19:48:00,37.2,18.3,29.94,West,264,20.7,20.7,46,0.00,CLR,,0.00,WeatherDisplay:10.37,2014-02-13 02:48:00,
2014-02-12 19:53:00,37.6,18.7,29.95,WSW,249,9.2,9.2,46,0.00,CLR,,0.00,WeatherDisplay:10.37,2014-02-13 02:53:00,
2014-02-12 19:58:00,37.5,18.6,29.95,West,261,10.0,10.0,46,0.00,CLR,,0.00,WeatherDisplay:10.37,2014-02-13 02:58:00,
2014-02-12 20:10:00,37.6,18.2,29.95,West,264,6.9,6.9,45,0.00,CLR,,0.00,WeatherDisplay:10.37,2014-02-13 03:10:00,
2014-02-12 20:15:00,37.5,18.6,29.95,WNW,286,5.8,7.6,46,0.00,CLR,,0.00,WeatherDisplay:10.37,2014-02-13 03:15:00,
2014-02-12 20:20:00,37.6,18.7,29.95,NE,44,9.0,9.0,46,0.00,CLR,,0.00,WeatherDisplay:10.37,2014-02-13 03:20:00,
2014-02-12 20:25:00,37.3,18.9,29.94,ENE,57,10.4,10.4,47,0.00,CLR,,0.00,WeatherDisplay:10.37,2014-02-13 03:25:00,
2014-02-12 20:30:00,37.0,18.6,29.95,SW,215,10.4,10.4,47,0.00,CLR,,0.00,WeatherDisplay:10.37,2014-02-13 03:30:00,
2014-02-12 20:35:00,37.2,18.8,29.95,WSW,248,3.0,3.0,47,0.00,CLR,,0.00,WeatherDisplay:10.37,2014-02-13 03:35:00,
2014-02-12 20:40:00,36.9,18.5,29.94,NNE,26,3.5,3.8,47,0.00,CLR,,0.00,WeatherDisplay:10.37,2014-02-13 03:40:00,
2014-02-12 20:45:00,37.2,18.8,29.94,West,261,5.8,6.3,47,0.00,CLR,,0.00,WeatherDisplay:10.37,2014-02-13 03:45:00,
2014-02-12 20:50:00,37.8,18.8,29.94,West,280,6.9,6.9,46,0.00,CLR,,0.00,WeatherDisplay:10.37,2014-02-13 03:50:00,
2014-02-12 20:55:00,38.0,19.0,29.94,NNW,344,5.8,5.8,46,0.00,CLR,,0.00,WeatherDisplay:10.37,2014-02-13 03:55:00,
2014-02-12 21:00:00,38.0,19.0,29.94,SW,226,11.0,11.0,46,0.00,CLR,,0.00,WeatherDisplay:10.37,2014-02-13 04:00:00,
2014-02-12 21:05:00,38.3,18.8,29.95,North,351,8.0,8.0,45,0.00,CLR,,0.00,WeatherDisplay:10.37,2014-02-13 04:05:00,
2014-02-12 21:10:00,38.5,17.9,29.96,NNW,341,6.0,6.0,43,0.00,CLR,,0.00,WeatherDisplay:10.37,2014-02-13 04:10:00,
2014-02-12 21:15:00,38.9,19.3,29.96,West,269,21.9,21.9,45,0.00,CLR,,0.00,WeatherDisplay:10.37,2014-02-13 04:15:00,
2014-02-12 21:20:00,38.6,18.5,29.97,NNE,26,0.0,0.0,44,0.00,CLR,,0.00,WeatherDisplay:10.37,2014-02-13 04:20:00,
2014-02-12 21:26:00,37.8,17.8,29.96,ENE,76,4.6,4.6,44,0.00,CLR,,0.00,WeatherDisplay:10.37,2014-02-13 04:26:00,
2014-02-12 21:31:00,36.8,17.9,29.95,North,351,4.6,4.6,46,0.00,CLR,,0.00,WeatherDisplay:10.37,2014-02-13 04:31:00,
2014-02-12 21:36:00,36.9,17.5,29.98,ESE,106,8.1,8.1,45,0.00,CLR,,0.00,WeatherDisplay:10.37,2014-02-13 04:36:00,
2014-02-12 21:41:00,37.5,19.1,29.96,SE,125,3.5,3.5,47,0.00,CLR,,0.00,WeatherDisplay:10.37,2014-02-13 04:41:00,
2014-02-12 21:46:00,37.3,19.4,29.95,East,88,5.8,5.8,48,0.00,CLR,,0.00,WeatherDisplay:10.37,2014-02-13 04:46:00,
2014-02-12 21:51:00,37.2,19.8,29.96,ESE,120,3.5,3.5,49,0.00,CLR,,0.00,WeatherDisplay:10.37,2014-02-13 04:51:00,
2014-02-12 21:56:00,36.9,19.0,29.98,ESE,122,0.0,0.0,48,0.00,CLR,,0.00,WeatherDisplay:10.37,2014-02-13 04:56:00,
2014-02-12 22:01:00,37.0,19.1,29.99,East,85,3.5,3.5,48,0.00,CLR,,0.00,WeatherDisplay:10.37,2014-02-13 05:01:00,
2014-02-12 22:02:00,37.0,19.1,29.99,West,263,5.0,5.0,48,0.00,CLR,,0.00,WeatherDisplay:10.37,2014-02-13 05:02:00,
2014-02-12 22:03:00,37.0,19.1,29.99,NE,54,6.9,6.9,48,0.00,CLR,,0.00,WeatherDisplay:10.37,2014-02-13 05:03:00,
2014-02-12 22:08:00,37.8,19.3,29.98,WNW,293,6.9,6.9,47,0.00,CLR,,0.00,WeatherDisplay:10.37,2014-02-13 05:08:00,
2014-02-12 22:13:00,38.0,19.0,29.98,SW,221,3.0,0.0,46,0.00,CLR,,0.00,WeatherDisplay:10.37,2014-02-13 05:13:00,
2014-02-12 22:18:00,37.9,19.4,29.96,NNW,339,8.1,8.1,47,0.00,CLR,,0.00,WeatherDisplay:10.37,2014-02-13 05:18:00,
2014-02-12 22:23:00,37.9,19.4,29.95,West,279,11.5,11.5,47,0.00,CLR,,0.00,WeatherDisplay:10.37,2014-02-13 05:23:00,
2014-02-12 22:28:00,37.8,19.3,29.94,West,281,11.5,11.5,47,0.00,CLR,,0.00,WeatherDisplay:10.37,2014-02-13 05:28:00,
2014-02-12 22:33:00,38.2,18.7,29.95,West,275,9.2,9.2,45,0.00,CLR,,0.00,WeatherDisplay:10.37,2014-02-13 05:33:00,
2014-02-12 22:38:00,38.5,18.4,29.96,WSW,251,17.3,17.3,44,0.00,CLR,,0.00,WeatherDisplay:10.37,2014-02-13 05:38:00,
2014-02-12 22:43:00,39.1,18.5,29.97,WSW,249,12.7,12.7,43,0.00,CLR,,0.00,WeatherDisplay:10.37,2014-02-13 05:43:00,
2014-02-12 22:48:00,39.1,19.0,29.97,WSW,257,8.0,8.0,44,0.00,CLR,,0.00,WeatherDisplay:10.37,2014-02-13 05:48:00,
2014-02-12 22:53:00,39.1,19.0,29.97,West,267,6.9,6.9,44,0.00,CLR,,0.00,WeatherDisplay:10.37,2014-02-13 05:53:00,
2014-02-12 22:58:00,38.9,18.8,29.97,North,5,4.6,4.6,44,0.00,CLR,,0.00,WeatherDisplay:10.37,2014-02-13 05:58:00,
2014-02-12 23:03:00,38.6,19.1,29.98,West,271,8.1,8.1,45,0.00,CLR,,0.00,WeatherDisplay:10.37,2014-02-13 06:03:00,
2014-02-12 23:08:00,38.6,19.1,29.97,NE,53,4.6,4.6,45,0.00,CLR,,0.00,WeatherDisplay:10.37,2014-02-13 06:08:00,
2014-02-12 23:13:00,38.5,19.0,29.97,NNE,13,4.6,4.6,45,0.00,CLR,,0.00,WeatherDisplay:10.37,2014-02-13 06:13:00,
2014-02-12 23:18:00,38.6,18.5,29.97,West,265,5.8,5.8,44,0.00,CLR,,0.00,WeatherDisplay:10.37,2014-02-13 06:18:00,
2014-02-12 23:23:00,38.6,19.1,29.97,NW,325,4.6,4.6,45,0.00,CLR,,0.00,WeatherDisplay:10.37,2014-02-13 06:23:00,
2014-02-12 23:28:00,38.6,18.5,29.98,North,11,0.0,0.2,44,0.00,CLR,,0.00,WeatherDisplay:10.37,2014-02-13 06:28:00,
2014-02-12 23:33:00,38.3,17.7,29.96,WSW,243,8.1,8.1,43,0.00,CLR,,0.00,WeatherDisplay:10.37,2014-02-13 06:33:00,
2014-02-12 23:38:00,38.8,18.2,29.96,WNW,288,3.5,3.5,43,0.00,CLR,,0.00,WeatherDisplay:10.37,2014-02-13 06:38:00,
2014-02-12 23:43:00,38.5,18.4,29.96,North,351,1.2,0.0,44,0.00,CLR,,0.00,WeatherDisplay:10.37,2014-02-13 06:43:00,
2014-02-12 23:48:00,37.3,18.9,29.96,NE,43,3.5,3.5,47,0.00,CLR,,0.00,WeatherDisplay:10.37,2014-02-13 06:48:00,
2014-02-12 23:53:00,36.0,18.2,29.96,East,86,2.3,2.3,48,0.00,CLR,,0.00,WeatherDisplay:10.37,2014-02-13 06:53:00,
2014-02-12 23:58:00,36.3,17.5,29.96,NNE,13,3.5,3.5,46,0.00,CLR,,0.00,WeatherDisplay:10.37,2014-02-13 06:58:00,